Terminal Aerodrome Forecast
Issued by NWS Mt. Holly, NJ

Home | Current Version | Previous Version | Text Only | Print | Product List | Glossary On
Versions: 1 2 3 4 5 6 7 8 9 10 11 12 13 14 15 16 17 18 19 20 21 22 23
000
FTUS41 KPHI 271700
TAFILG
TAF
KILG 271734Z 2718/2818 32009KT P6SM SCT020 OVC060
     FM271900 31009KT P6SM BKN025 BKN060
     FM272300 29005KT P6SM SCT030 BKN080
     FM281400 31011G19KT P6SM SKC=

USA.gov is the U.S. government's official web portal to all federal, state and local government web resources and services.